EW4382 Varnamo SE current weather conditions

sailwx.info

Wind from 274 at 9 knots gusting 17

Air temperature 2.8° C
Dewpoint 2.1° C

Last reported at 2019-Dec-15 23:00 UTC.
Time now 2019-Dec-15 23:49 UTC

Location: N 57°12' E 014°02'.
View on Google Maps.

See reports from other nearby stations

  
Tides and Currents Weather Stations Pressure Air Temp Water Temp Dewpoint Dewpoint Depression Visibility Wind Speed Wind Dir Waves Ship Positions
date/time (UTC)wind fromknots sea level pressurealtimeterstation pressurevisibilityair tempwater tempwave heightnotes
2019-Dec-15 23:00 274 9 gusting 17 2.8
2019-Dec-15 22:45 290 9 gusting 16 2.8
2019-Dec-15 22:30 209 9 gusting 21 2.8
2019-Dec-15 22:15 287 12 gusting 26 2.2
2019-Dec-15 22:00 300 11 gusting 24 2.2
2019-Dec-15 21:48 310 12 gusting 26 1.7
2019-Dec-15 21:31 264 14 gusting 23 1.1
2019-Dec-15 21:16 280 10 gusting 24 1.7
2019-Dec-15 21:02 286 16 gusting 29 2.2
2019-Dec-15 20:46 250 19 gusting 33 2.8
2019-Dec-15 20:31 245 10 gusting 17 3.3
2019-Dec-15 20:16 219 8 gusting 15 3.3
2019-Dec-15 20:01 267 9 gusting 13 3.3
2019-Dec-15 19:46 197 6 gusting 14 2.8
2019-Dec-15 19:31 211 4 gusting 8 2.8
2019-Dec-15 19:16 194 4 gusting 9 2.8
2019-Dec-15 19:01 216 6 gusting 13 2.8
2019-Dec-15 18:46 225 7 gusting 19 3.3
2019-Dec-15 18:31 159 5 gusting 12 3.3
2019-Dec-15 18:18 232 3 gusting 9 3.3
2019-Dec-15 18:01 161 4 gusting 11 3.3
2019-Dec-15 17:46 173 6 gusting 10 3.3
2019-Dec-15 17:31 162 5 gusting 12 3.3
2019-Dec-15 17:16 181 4 gusting 8 3.3
2019-Dec-15 17:01 134 4 gusting 12 3.3
2019-Dec-15 16:46 134 5 gusting 14 2.8
2019-Dec-15 16:30 169 4 gusting 9 2.8
2019-Dec-15 16:17 115 5 gusting 12 2.8
2019-Dec-15 16:01 140 5 gusting 12 2.8
2019-Dec-15 15:47 141 6 gusting 14 2.2
2019-Dec-15 15:31 149 4 gusting 10 2.2
2019-Dec-15 15:16 144 6 gusting 10 2.2
2019-Dec-15 15:01 193 2 gusting 9 2.2
2019-Dec-15 14:46 153 5 gusting 13 1.7
2019-Dec-15 14:31 151 6 gusting 13 1.7
2019-Dec-15 14:15 115 5 gusting 12 1.7
2019-Dec-15 14:00 140 6 gusting 12 2.2
2019-Dec-15 13:45 165 5 gusting 12 2.2
2019-Dec-15 13:31 134 5 gusting 12 2.2
2019-Dec-15 13:16 129 6 gusting 12 2.8
2019-Dec-15 13:01 073 6 gusting 13 2.8
2019-Dec-15 12:46 130 6 gusting 13 3.3
2019-Dec-15 12:31 146 7 gusting 14 3.3
2019-Dec-15 12:15 157 4 gusting 11 2.8
2019-Dec-15 12:00 136 4 gusting 10 2.8
2019-Dec-15 11:45 135 6 gusting 11 2.8
2019-Dec-15 11:30 150 4 gusting 9 2.8
2019-Dec-15 11:15 136 5 gusting 13 2.8
2019-Dec-15 11:00 122 5 gusting 12 2.8
2019-Dec-15 10:45 144 5 gusting 13 2.8
2019-Dec-15 10:30 151 6 gusting 13 2.8
2019-Dec-15 10:15 165 5 gusting 14 2.8
2019-Dec-15 10:00 186 7 gusting 12 2.8
2019-Dec-15 09:45 141 6 gusting 16 2.8
2019-Dec-15 09:30 196 9 gusting 17 3.3
2019-Dec-15 09:16 190 5 gusting 9 3.3
2019-Dec-15 09:01 154 3 gusting 11 3.3
2019-Dec-15 08:48 183 2 gusting 8 3.3
2019-Dec-15 08:31 213 3 gusting 8 3.3
2019-Dec-15 08:17 171 4 gusting 6 3.9
2019-Dec-15 08:01 169 4 gusting 9 3.9
2019-Dec-15 07:46 174 2 gusting 6 3.9
2019-Dec-15 07:33 188 3 gusting 8 3.9
2019-Dec-15 07:16 192 4 gusting 9 3.9
2019-Dec-15 07:01 185 7 gusting 13 3.9
2019-Dec-15 06:47 185 5 gusting 8 3.9
2019-Dec-15 06:32 223 4 gusting 14 4.4
2019-Dec-15 06:17 221 4 gusting 13 4.4
2019-Dec-15 06:03 240 5 gusting 14 4.4
2019-Dec-15 05:46 176 6 gusting 14 3.9
2019-Dec-15 05:33 175 6 gusting 11 3.9
2019-Dec-15 05:17 187 6 gusting 12 3.9
2019-Dec-15 05:01 193 3 gusting 13 4.4
2019-Dec-15 04:46 221 5 gusting 14 4.4
2019-Dec-15 04:30 236 6 gusting 13 4.4
2019-Dec-15 04:16 229 10 gusting 16 4.4
2019-Dec-15 04:01 198 8 gusting 13 4.4
2019-Dec-15 03:46 232 6 gusting 18 4.4
2019-Dec-15 03:31 178 5 gusting 9 3.9
2019-Dec-15 03:15 188 4 gusting 8 3.9
2019-Dec-15 03:00 192 4 gusting 10 3.9
2019-Dec-15 02:30 156 0 gusting 4 2.8
2019-Dec-15 02:15 196 1 gusting 4 2.8
2019-Dec-15 02:00 157 1 gusting 6 2.8
2019-Dec-15 01:45 130 3 gusting 6 2.8
2019-Dec-15 01:30 146 3 gusting 6 2.8
2019-Dec-15 01:15 178 3 gusting 7 3.3
2019-Dec-15 01:00 206 5 gusting 12 3.3
2019-Dec-15 00:48 209 6 gusting 9 3.3
2019-Dec-15 00:31 196 4 gusting 13 3.3
2019-Dec-15 00:18 199 5 gusting 10 3.3
2019-Dec-15 00:02 148 4 gusting 9 3.3
2019-Dec-14 23:46 174 4 gusting 10 3.3
2019-Dec-14 23:31 150 2 gusting 9 3.3
2019-Dec-14 23:17 135 2 gusting 7 3.3
2019-Dec-14 23:01 138 3 gusting 6 3.3
2019-Dec-14 22:46 166 4 gusting 7 3.3
2019-Dec-14 22:31 165 2 gusting 6 3.3
2019-Dec-14 22:16 137 2 gusting 8 3.3
2019-Dec-14 22:01 121 4 gusting 12 3.3
2019-Dec-14 21:47 160 3 gusting 7 3.3
2019-Dec-14 21:31 148 3 gusting 7 3.3
2019-Dec-14 21:02 125 6 gusting 8 3.3
2019-Dec-14 20:46 159 2 gusting 9 3.3
2019-Dec-14 20:31 155 4 gusting 9 3.3
2019-Dec-14 20:16 155 5 gusting 11 3.3
2019-Dec-14 20:02 157 6 gusting 11 3.3
2019-Dec-14 19:45 108 6 gusting 9 3.3
2019-Dec-14 19:31 155 5 gusting 10 3.3
2019-Dec-14 19:16 144 5 gusting 10 3.3
2019-Dec-14 19:00 112 4 gusting 9 3.3
2019-Dec-14 18:45 146 5 gusting 9 3.3
2019-Dec-14 18:30 124 2 gusting 9 3.3
2019-Dec-14 18:16 113 4 gusting 9 2.8
2019-Dec-14 18:00 161 3 gusting 8 2.8
2019-Dec-14 17:47 137 2 gusting 8 2.8
2019-Dec-14 17:30 162 5 gusting 11 2.8
2019-Dec-14 17:16 123 2 gusting 6 2.2
2019-Dec-14 17:00 129 1 gusting 4 2.2
2019-Dec-14 16:45 141 4 gusting 7 2.2
2019-Dec-14 16:30 138 4 gusting 8 2.2
2019-Dec-14 16:16 140 2 gusting 7 1.7
2019-Dec-14 16:00 173 3 gusting 7 1.7
2019-Dec-14 15:45 136 1 gusting 6 1.7
2019-Dec-14 15:30 128 2 gusting 8 1.7
2019-Dec-14 15:15 154 3 gusting 6 2.2
2019-Dec-14 15:00 138 2 gusting 6 2.2
2019-Dec-14 14:45 151 2 gusting 8 2.2
2019-Dec-14 14:30 110 3 gusting 6 2.2
2019-Dec-14 14:15 131 3 gusting 8 2.2
2019-Dec-14 14:00 139 4 gusting 7 2.2
2019-Dec-14 13:45 120 3 gusting 6 2.2
2019-Dec-14 13:30 123 5 gusting 7 2.8
2019-Dec-14 13:15 113 2 gusting 7 2.8
2019-Dec-14 13:00 133 3 gusting 7 2.8
2019-Dec-14 12:45 104 3 gusting 8 2.8
2019-Dec-14 12:30 125 2 gusting 6 2.8
2019-Dec-14 12:16 146 3 gusting 7 2.8
2019-Dec-14 12:00 095 1 gusting 6 2.8
2019-Dec-14 11:45 103 1 gusting 7 2.8
2019-Dec-14 11:30 146 1 gusting 6 2.8
2019-Dec-14 11:15 123 2 gusting 6 2.8
2019-Dec-14 11:00 131 2 gusting 6 2.8
2019-Dec-14 10:45 148 4 gusting 7 2.8
2019-Dec-14 10:30 126 2 gusting 7 2.8
2019-Dec-14 10:15 109 1 gusting 9 2.8
2019-Dec-14 10:01 138 2 gusting 6 2.2
2019-Dec-14 09:46 093 1 gusting 3 2.2
2019-Dec-14 09:32 105 0 gusting 5 2.2
2019-Dec-14 09:03 126 2.2
2019-Dec-14 08:46 129 0 gusting 2 2.2
2019-Dec-14 08:32 130 2 gusting 6 2.2
2019-Dec-14 08:18 126 0 gusting 5 2.2
2019-Dec-14 08:02 126 2.2
2019-Dec-14 07:47 134 0 gusting 3 2.2
2019-Dec-14 07:32 109 0 gusting 3 2.2
2019-Dec-14 07:17 119 0 gusting 6 2.2
2019-Dec-14 07:01 126 2 gusting 6 2.2
2019-Dec-14 06:46 139 2.2
2019-Dec-14 06:31 131 1 gusting 6 2.2
2019-Dec-14 06:16 138 1 gusting 6 2.2
2019-Dec-14 06:02 084 0 gusting 6 1.7
2019-Dec-14 05:46 119 0 gusting 6 1.7
2019-Dec-14 05:32 120 1 gusting 6 1.7
2019-Dec-14 05:16 130 3 gusting 7 1.7
2019-Dec-14 05:02 121 1 gusting 6 1.7
2019-Dec-14 04:47 087 0 gusting 3 1.7
2019-Dec-14 04:31 143 2 gusting 6 1.7
2019-Dec-14 04:17 103 1 gusting 6 1.7
2019-Dec-14 04:01 129 0 gusting 3 1.7
2019-Dec-14 03:46 121 1 gusting 4 1.7
2019-Dec-14 03:31 171 2 gusting 6 1.7
2019-Dec-14 03:15 137 2 gusting 7 1.7
2019-Dec-14 03:01 158 1 gusting 8 1.7
2019-Dec-14 02:46 127 3 gusting 7 1.7
2019-Dec-14 02:32 125 1 gusting 6 1.7
2019-Dec-14 02:16 127 0 gusting 6 1.7
2019-Dec-14 02:01 096 1.7
2019-Dec-14 01:46 093 1.7
2019-Dec-14 01:31 102 1.7
2019-Dec-14 01:15 093 0 gusting 5 1.7
2019-Dec-14 01:00 088 2 gusting 7 2.2
2019-Dec-14 00:45 108 0 gusting 4 2.2
2019-Dec-14 00:30 110 0 gusting 6 2.2
2019-Dec-14 00:15 082 2 gusting 6 2.2
2019-Dec-14 00:00 074 0 gusting 3 2.2
2019-Dec-13 23:45 139 1 gusting 7 2.8
2019-Dec-13 23:30 084 1 gusting 6 2.8
2019-Dec-13 23:15 073 1 gusting 5 2.8
2019-Dec-13 23:02 082 3 gusting 6 2.8